Time;durP1;ratioP1;P1;durP2;ratioP2;P2;SDS_P1;SDS_P2;PMS_P1;PMS_P2;Temp;Humidity;BMP_temperature;BMP_pressure;BME280_temperature;BME280_humidity;BME280_pressure;Samples;Min_cycle;Max_cycle;Signal;HPM_P1;HPM_P2
2021/08/05 00:00:16;;;;;;;;;7.50;7.50;;;;;21.04;50.94;100670.34;5078523;28;45504;-53
2021/08/05 00:02:41;;;;;;;;;6.50;6.00;;;;;21.02;50.98;100666.91;5080055;28;45516;-51
2021/08/05 00:05:07;;;;;;;;;7.00;7.00;;;;;21.03;50.83;100673.09;5079833;28;45484;-51
2021/08/05 00:07:32;;;;;;;;;5.25;5.00;;;;;21.00;51.23;100659.94;5079628;28;46355;-52
2021/08/05 00:09:58;;;;;;;;;6.00;6.00;;;;;21.04;51.20;100674.81;5079640;28;45308;-52
2021/08/05 00:12:23;;;;;;;;;8.00;8.00;;;;;21.03;51.23;100667.75;5079901;28;45442;-52
2021/08/05 00:14:48;;;;;;;;;5.25;4.25;;;;;21.02;51.35;100668.69;5078470;28;45600;-51
2021/08/05 00:17:14;;;;;;;;;7.00;6.00;;;;;21.00;51.33;100658.09;5079754;28;46196;-51
2021/08/05 00:19:40;;;;;;;;;5.25;5.25;;;;;20.97;51.02;100650.28;5079746;28;45207;-52
2021/08/05 00:22:05;;;;;;;;;5.75;4.75;;;;;20.99;50.86;100652.84;5078104;28;45421;-52
2021/08/05 00:24:31;;;;;;;;;7.25;6.00;;;;;20.98;51.38;100644.00;5079501;28;45226;-49
2021/08/05 00:26:58;;;;;;;;;6.00;5.00;;;;;20.96;51.00;100634.34;5079549;28;45306;-49
2021/08/05 00:29:23;;;;;;;;;5.00;4.00;;;;;20.95;51.06;100636.16;5079378;28;45455;-48
2021/08/05 00:31:49;;;;;;;;;5.50;5.00;;;;;20.97;51.32;100641.41;5080890;27;45469;-50
2021/08/05 00:34:14;;;;;;;;;4.00;4.00;;;;;20.96;51.42;100639.69;5082852;28;45406;-48
2021/08/05 00:36:39;;;;;;;;;5.00;5.00;;;;;20.93;50.91;100636.25;5082847;28;45400;-50
2021/08/05 00:39:05;;;;;;;;;7.00;6.00;;;;;20.93;51.29;100632.72;5083001;28;45318;-52
2021/08/05 00:41:30;;;;;;;;;3.25;3.25;;;;;20.93;51.52;100632.72;5083050;28;45299;-52
2021/08/05 00:43:55;;;;;;;;;5.75;5.75;;;;;20.93;51.58;100632.72;5082851;28;45437;-51
2021/08/05 00:46:21;;;;;;;;;3.75;3.25;;;;;20.91;50.99;100631.94;5081531;28;46516;-52
2021/08/05 00:48:46;;;;;;;;;6.00;5.50;;;;;20.89;51.46;100632.03;5082503;28;45360;-51
2021/08/05 00:51:12;;;;;;;;;8.00;7.25;;;;;20.87;51.36;100633.94;5082831;27;45310;-50
2021/08/05 00:53:39;;;;;;;;;7.00;5.25;;;;;20.90;51.63;100640.91;5082715;28;45451;-52
2021/08/05 00:56:05;;;;;;;;;7.00;6.50;;;;;20.87;51.07;100627.75;5082800;28;47038;-48
2021/08/05 00:58:31;;;;;;;;;9.25;8.50;;;;;20.88;51.14;100629.44;5081109;28;45371;-51
2021/08/05 01:01:03;;;;;;;;;7.25;5.75;;;;;20.87;51.46;100636.59;5082812;27;45341;-51
2021/08/05 01:03:35;;;;;;;;;5.50;5.00;;;;;20.86;51.41;100637.56;5082597;28;45303;-52
2021/08/05 01:06:14;;;;;;;;;6.00;5.75;;;;;20.85;51.16;100637.66;5082166;28;46101;-53
2021/08/05 01:08:45;;;;;;;;;7.00;7.00;;;;;20.84;51.26;100623.44;5069074;28;45252;-50
2021/08/05 01:11:15;;;;;;;;;6.50;6.50;;;;;20.83;51.45;100624.41;5082556;27;45369;-50
2021/08/05 01:13:52;;;;;;;;;8.75;7.50;;;;;20.82;51.42;100619.13;5082553;28;45275;-50
2021/08/05 01:16:21;;;;;;;;;7.75;7.75;;;;;20.81;51.68;100614.75;5082116;28;47279;-51
2021/08/05 01:18:49;;;;;;;;;9.25;8.00;;;;;20.81;51.39;100623.63;5082359;28;45377;-52
2021/08/05 01:21:18;;;;;;;;;9.00;6.25;;;;;20.81;51.07;100622.78;5081862;28;45373;-53
2021/08/05 01:23:54;;;;;;;;;8.75;8.50;;;;;20.82;51.16;100620.00;5082277;28;45292;-53
2021/08/05 01:26:45;;;;;;;;;9.25;8.00;;;;;20.81;51.69;100614.75;5081912;28;46374;-50
2021/08/05 01:29:11;;;;;;;;;9.75;7.00;;;;;20.80;51.78;100610.38;5081977;27;45275;-51
2021/08/05 01:31:36;;;;;;;;;8.75;6.50;;;;;20.80;51.25;100613.03;5080927;27;45335;-52
2021/08/05 01:34:02;;;;;;;;;7.25;6.00;;;;;20.80;51.76;100613.03;5080688;28;45198;-52
2021/08/05 01:36:30;;;;;;;;;8.00;8.00;;;;;20.80;51.42;100613.03;5080502;28;47183;-53
2021/08/05 01:38:58;;;;;;;;;8.25;6.00;;;;;20.81;51.33;100617.44;5081972;28;45350;-52
2021/08/05 01:41:25;;;;;;;;;5.00;5.00;;;;;20.81;51.72;100614.75;5082023;28;45267;-48
2021/08/05 01:43:51;;;;;;;;;4.75;4.75;;;;;20.80;51.88;100613.88;5081234;28;45239;-52
2021/08/05 01:46:20;;;;;;;;;6.50;6.50;;;;;20.77;51.88;100612.25;5081887;28;45246;-51
2021/08/05 01:48:48;;;;;;;;;6.50;4.50;;;;;20.80;51.84;100615.69;5080436;28;45318;-53
2021/08/05 01:51:14;;;;;;;;;5.75;5.75;;;;;20.80;51.39;100613.03;5082074;28;45244;-53
2021/08/05 01:53:41;;;;;;;;;8.00;6.00;;;;;20.78;51.61;100605.97;5081638;28;45494;-51
2021/08/05 01:56:07;;;;;;;;;6.00;6.00;;;;;20.80;51.94;100602.34;5081775;28;45352;-53
2021/08/05 01:58:32;;;;;;;;;9.75;7.50;;;;;20.77;51.97;100590.91;5081430;28;45332;-53
2021/08/05 02:00:58;;;;;;;;;9.00;7.50;;;;;20.78;52.06;100592.63;5081907;27;45733;-48
2021/08/05 02:03:23;;;;;;;;;6.00;6.00;;;;;20.78;52.19;100592.63;5081659;28;45378;-52
2021/08/05 02:06:07;;;;;;;;;8.75;7.25;;;;;20.77;52.07;100590.03;5081529;28;45378;-52
2021/08/05 02:09:01;;;;;;;;;7.75;7.75;;;;;20.77;51.61;100585.56;5081595;27;45289;-52
2021/08/05 02:11:33;;;;;;;;;7.00;6.00;;;;;20.77;52.15;100584.72;5080170;27;45215;-52
2021/08/05 02:14:01;;;;;;;;;10.75;7.00;;;;;20.76;52.02;100581.16;5081349;28;45329;-53
2021/08/05 02:16:29;;;;;;;;;8.25;8.25;;;;;20.75;52.22;100576.78;5081143;28;45323;-53
2021/08/05 02:18:55;;;;;;;;;7.50;6.00;;;;;20.75;51.93;100570.56;5081373;28;45349;-52
2021/08/05 02:21:23;;;;;;;;;7.50;7.50;;;;;20.76;52.21;100572.31;5079656;28;45388;-50
2021/08/05 02:23:51;;;;;;;;;7.50;6.00;;;;;20.73;52.13;100575.16;5080117;28;45516;-50
2021/08/05 02:26:17;;;;;;;;;9.50;6.25;;;;;20.71;52.02;100572.56;5080948;28;46185;-50
2021/08/05 02:28:42;;;;;;;;;9.00;9.00;;;;;20.73;52.53;100576.00;5080989;28;45212;-52
2021/08/05 02:31:08;;;;;;;;;7.25;7.00;;;;;20.72;52.61;100579.63;5081187;28;45417;-50
2021/08/05 02:33:36;;;;;;;;;8.50;5.00;;;;;20.70;52.13;100575.31;5081196;28;45437;-54
2021/08/05 02:36:02;;;;;;;;;7.75;6.50;;;;;20.71;52.43;100571.72;5080685;27;46168;-51
2021/08/05 02:38:28;;;;;;;;;7.75;7.00;;;;;20.72;52.45;100584.13;5081043;28;45278;-51
2021/08/05 02:40:54;;;;;;;;;8.50;8.50;;;;;20.69;52.14;100571.78;5081135;28;45730;-53
2021/08/05 02:43:22;;;;;;;;;9.25;8.00;;;;;20.69;52.82;100569.13;5080959;28;45252;-53
2021/08/05 02:45:49;;;;;;;;;7.25;6.25;;;;;20.68;52.10;100570.06;5080818;28;45375;-53
2021/08/05 02:48:15;;;;;;;;;6.75;6.75;;;;;20.68;52.73;100572.72;5062702;28;45369;-51
2021/08/05 02:50:41;;;;;;;;;6.00;6.00;;;;;20.68;52.59;100566.50;5080472;27;45322;-52
2021/08/05 02:53:08;;;;;;;;;5.50;5.50;;;;;20.67;52.70;100564.81;5080978;28;45536;-51
2021/08/05 02:55:34;;;;;;;;;6.00;6.00;;;;;20.66;52.30;100563.94;5079723;28;45315;-53
2021/08/05 02:58:01;;;;;;;;;7.25;6.25;;;;;20.64;52.60;100563.19;5080746;28;45178;-50
2021/08/05 03:00:26;;;;;;;;;5.75;5.75;;;;;20.60;52.96;100557.16;5080692;28;45502;-51
2021/08/05 03:02:52;;;;;;;;;7.25;6.25;;;;;20.61;52.56;100558.03;5080750;28;45262;-52
2021/08/05 03:05:18;;;;;;;;;5.25;5.25;;;;;20.60;52.72;100554.50;5080325;28;45333;-50
2021/08/05 03:07:44;;;;;;;;;7.25;7.25;;;;;20.58;53.05;100542.19;5080827;28;45244;-52
2021/08/05 03:10:13;;;;;;;;;10.00;7.00;;;;;20.57;52.60;100541.31;5079178;27;45362;-50
2021/08/05 03:12:38;;;;;;;;;7.00;7.00;;;;;20.56;52.70;100546.75;5079206;28;45689;-51
2021/08/05 03:15:04;;;;;;;;;9.75;5.00;;;;;20.56;52.47;100549.44;5080476;28;46280;-51
2021/08/05 03:17:30;;;;;;;;;6.50;5.25;;;;;20.55;52.88;100545.03;5080402;28;45203;-52
2021/08/05 03:19:55;;;;;;;;;7.50;7.50;;;;;20.54;52.84;100540.63;5080152;27;45377;-52
2021/08/05 03:22:20;;;;;;;;;10.25;9.25;;;;;20.54;52.93;100541.50;5080260;28;45243;-51
2021/08/05 03:24:46;;;;;;;;;6.75;6.00;;;;;20.54;53.08;100537.97;5080227;28;45208;-52
2021/08/05 03:27:11;;;;;;;;;7.50;7.50;;;;;20.53;52.63;100539.78;5080713;28;45205;-51
2021/08/05 03:29:37;;;;;;;;;5.75;5.75;;;;;20.55;53.12;100542.38;5079132;28;45197;-51
2021/08/05 03:32:03;;;;;;;;;6.00;5.00;;;;;20.53;52.66;100533.59;5078927;28;45213;-53
2021/08/05 03:34:29;;;;;;;;;6.25;6.25;;;;;20.50;53.12;100523.94;5080106;28;45397;-52
2021/08/05 03:36:54;;;;;;;;;7.25;7.25;;;;;20.53;53.22;100529.13;5080051;28;45382;-52
2021/08/05 03:39:19;;;;;;;;;7.00;6.25;;;;;20.53;53.11;100528.28;5080403;28;45409;-53
2021/08/05 03:41:45;;;;;;;;;6.50;6.50;;;;;20.52;52.65;100526.53;5080036;28;45486;-53
2021/08/05 03:44:11;;;;;;;;;8.00;8.00;;;;;20.50;53.03;100523.94;5078845;28;46135;-51
2021/08/05 03:46:36;;;;;;;;;6.75;5.50;;;;;20.51;52.59;100528.34;5078723;28;45343;-52
2021/08/05 03:49:02;;;;;;;;;7.00;7.00;;;;;20.50;52.79;100523.09;5080054;28;45252;-50
2021/08/05 03:51:27;;;;;;;;;5.25;5.25;;;;;20.49;52.67;100524.03;5079943;28;45342;-51
2021/08/05 03:53:52;;;;;;;;;5.00;5.00;;;;;20.50;53.09;100517.75;5079964;28;46052;-51
2021/08/05 03:56:18;;;;;;;;;6.50;6.50;;;;;20.47;52.89;100521.47;5080135;28;45357;-50
2021/08/05 03:58:43;;;;;;;;;7.25;7.25;;;;;20.46;53.17;100523.28;5078684;28;45284;-51
2021/08/05 04:01:09;;;;;;;;;8.00;7.00;;;;;20.48;53.23;100525.88;5080181;28;45228;-52
2021/08/05 04:03:34;;;;;;;;;6.25;6.00;;;;;20.48;52.90;100536.53;5079749;28;46081;-49
2021/08/05 04:06:00;;;;;;;;;9.50;9.50;;;;;20.48;53.25;100536.53;5081376;27;45346;-52
2021/08/05 04:08:26;;;;;;;;;7.00;7.00;;;;;20.47;52.89;100532.16;5083538;28;45401;-53
2021/08/05 04:10:51;;;;;;;;;6.75;6.75;;;;;20.45;53.35;100524.25;5083544;27;45439;-51
2021/08/05 04:13:17;;;;;;;;;7.00;7.00;;;;;20.45;53.26;100528.69;5081923;28;46288;-49
2021/08/05 04:15:44;;;;;;;;;10.00;10.00;;;;;20.43;52.91;100534.13;5083416;28;45346;-50
2021/08/05 04:18:09;;;;;;;;;9.50;9.50;;;;;20.43;53.02;100522.63;5083313;28;45474;-51
2021/08/05 04:20:34;;;;;;;;;10.00;9.25;;;;;20.38;53.40;100517.53;5082841;27;45302;-51
2021/08/05 04:23:00;;;;;;;;;10.75;7.00;;;;;20.38;53.02;100528.22;5082976;28;46965;-50
2021/08/05 04:25:26;;;;;;;;;9.50;9.50;;;;;20.37;53.51;100528.31;5083301;28;45315;-52
2021/08/05 04:27:51;;;;;;;;;10.25;8.50;;;;;20.36;53.63;100527.44;5083052;28;45422;-53
2021/08/05 04:30:17;;;;;;;;;8.00;8.00;;;;;20.33;53.62;100524.94;5083066;27;45304;-49
2021/08/05 04:32:43;;;;;;;;;10.00;8.75;;;;;20.29;53.40;100521.59;5082804;28;45441;-54
2021/08/05 04:35:10;;;;;;;;;10.25;8.25;;;;;20.29;53.89;100526.94;5082895;27;45287;-51
2021/08/05 04:37:45;;;;;;;;;9.75;8.50;;;;;20.28;53.82;100519.03;5082986;28;45282;-48
2021/08/05 04:40:11;;;;;;;;;13.75;11.25;;;;;20.26;54.11;100515.59;5083098;27;45223;-52
2021/08/05 04:42:37;;;;;;;;;11.00;10.50;;;;;20.25;53.47;100513.84;5082604;28;46036;-51
2021/08/05 04:45:02;;;;;;;;;9.25;8.25;;;;;20.25;53.60;100520.06;5083008;28;45224;-51
2021/08/05 04:47:27;;;;;;;;;9.50;9.00;;;;;20.25;54.00;100521.88;5083055;28;45286;-53
2021/08/05 04:49:53;;;;;;;;;11.25;11.25;;;;;20.24;53.51;100523.69;5081304;27;45265;-53
2021/08/05 04:52:18;;;;;;;;;8.00;8.00;;;;;20.23;54.01;100527.28;5082450;28;45210;-51
2021/08/05 04:54:43;;;;;;;;;13.25;9.00;;;;;20.23;53.54;100521.97;5081545;28;45912;-50
2021/08/05 04:57:09;;;;;;;;;7.50;7.50;;;;;20.18;53.56;100513.38;5081344;28;45399;-49
2021/08/05 04:59:34;;;;;;;;;10.00;9.00;;;;;20.22;54.13;100514.06;5082722;28;45515;-51
2021/08/05 05:02:00;;;;;;;;;12.00;8.75;;;;;20.21;53.91;100513.19;5082357;27;45294;-53
2021/08/05 05:04:25;;;;;;;;;12.75;7.75;;;;;20.20;53.86;100524.81;5082665;28;45388;-51
2021/08/05 05:06:50;;;;;;;;;9.25;7.00;;;;;20.17;53.75;100527.66;5082462;28;45322;-51
2021/08/05 05:09:16;;;;;;;;;12.00;10.00;;;;;20.17;54.14;100526.81;5081304;28;45349;-52
2021/08/05 05:11:41;;;;;;;;;9.00;8.75;;;;;20.17;53.90;100534.81;5082259;27;45996;-51
2021/08/05 05:14:06;;;;;;;;;11.75;9.75;;;;;20.16;54.42;100530.41;5082471;28;45326;-52
2021/08/05 05:16:32;;;;;;;;;10.00;9.00;;;;;20.16;53.95;100533.94;5082454;28;45482;-52
2021/08/05 05:18:57;;;;;;;;;9.50;9.00;;;;;20.17;53.92;100532.13;5080499;28;45545;-49
2021/08/05 05:21:22;;;;;;;;;11.75;9.25;;;;;20.14;54.28;100528.69;5081728;27;45484;-48
2021/08/05 05:23:48;;;;;;;;;8.25;8.25;;;;;20.15;54.29;100537.56;5082312;28;46144;-52
2021/08/05 05:26:14;;;;;;;;;15.00;10.00;;;;;20.13;53.99;100534.13;5082286;28;45422;-50
2021/08/05 05:28:39;;;;;;;;;8.00;8.00;;;;;20.10;54.40;100527.16;5082186;28;45228;-52
2021/08/05 05:31:05;;;;;;;;;17.25;15.50;;;;;20.10;54.43;100516.47;5081798;27;45976;-52
2021/08/05 05:33:30;;;;;;;;;12.00;10.50;;;;;20.09;53.97;100537.91;5080864;28;45293;-51
2021/08/05 05:35:56;;;;;;;;;8.25;8.25;;;;;20.10;53.94;100540.50;5082018;28;45232;-53
2021/08/05 05:38:22;;;;;;;;;9.25;8.00;;;;;20.07;54.43;100535.31;5082149;28;45489;-52
2021/08/05 05:40:48;;;;;;;;;12.25;10.50;;;;;20.09;54.31;100540.59;5081667;28;46217;-53
2021/08/05 05:43:14;;;;;;;;;7.50;7.00;;;;;20.09;54.00;100538.75;5081905;28;45254;-52
2021/08/05 05:45:40;;;;;;;;;9.25;7.25;;;;;20.09;53.72;100543.25;5080653;28;45300;-52
2021/08/05 05:48:07;;;;;;;;;9.00;7.50;;;;;20.02;54.44;100524.06;5081868;28;45593;-52
2021/08/05 05:50:32;;;;;;;;;7.50;7.50;;;;;20.11;54.15;100538.66;5081244;27;45375;-53
2021/08/05 05:52:59;;;;;;;;;10.75;10.75;;;;;20.10;54.27;100528.94;5080499;28;45385;-49
2021/08/05 05:55:25;;;;;;;;;12.00;9.50;;;;;20.12;54.34;100543.94;5081829;28;45231;-48
2021/08/05 05:57:50;;;;;;;;;10.00;10.00;;;;;20.14;54.64;100541.19;5081680;28;45329;-54
2021/08/05 06:00:16;;;;;;;;;13.75;10.25;;;;;20.14;54.06;100539.34;5081443;28;46035;-53
2021/08/05 06:02:41;;;;;;;;;9.25;8.50;;;;;20.10;53.85;100535.16;5081804;28;45232;-55
2021/08/05 06:05:08;;;;;;;;;14.50;9.00;;;;;20.15;54.39;100548.25;5081405;28;45138;-48
2021/08/05 06:07:47;;;;;;;;;12.25;10.00;;;;;20.15;53.85;100561.56;5081833;28;45199;-52
2021/08/05 06:10:15;;;;;;;;;11.25;10.00;;;;;20.12;54.33;100564.41;5081158;27;45389;-51
2021/08/05 06:12:40;;;;;;;;;10.25;9.00;;;;;20.12;53.92;100559.94;5080227;28;45898;-51
2021/08/05 06:15:07;;;;;;;;;10.00;9.00;;;;;20.10;53.95;100558.28;5080303;28;45247;-48
2021/08/05 06:17:32;;;;;;;;;10.50;10.50;;;;;20.09;54.39;100561.91;5081649;27;45185;-50
2021/08/05 06:19:58;;;;;;;;;13.00;11.00;;;;;20.08;54.37;100561.03;5080938;28;45912;-53
2021/08/05 06:22:23;;;;;;;;;14.50;12.50;;;;;20.06;53.87;100557.63;5079843;28;45467;-51
2021/08/05 06:24:48;;;;;;;;;12.75;12.75;;;;;20.07;53.91;100569.13;5081492;28;45286;-53
2021/08/05 06:27:14;;;;;;;;;12.25;12.25;;;;;20.05;54.01;100563.03;5081316;28;45507;-52
2021/08/05 06:29:39;;;;;;;;;11.00;11.00;;;;;20.04;53.91;100564.84;5078635;28;46918;-52
2021/08/05 06:32:06;;;;;;;;;12.75;12.75;;;;;20.04;54.33;100567.50;5079825;27;45450;-52
2021/08/05 06:34:32;;;;;;;;;13.00;13.00;;;;;20.04;54.30;100564.00;5081091;28;45342;-51
2021/08/05 06:36:57;;;;;;;;;12.75;12.75;;;;;20.03;54.31;100573.78;5079629;28;45561;-49
2021/08/05 06:39:22;;;;;;;;;22.50;19.00;;;;;20.04;53.96;100572.84;5080935;28;45996;-51
2021/08/05 06:41:48;;;;;;;;;15.00;11.00;;;;;20.02;54.23;100561.38;5079558;28;45798;-53
2021/08/05 06:44:13;;;;;;;;;12.50;9.00;;;;;20.05;54.05;100566.56;5080991;28;45470;-50
2021/08/05 06:46:39;;;;;;;;;12.50;12.50;;;;;20.06;53.75;100562.97;5081021;28;45496;-51
2021/08/05 06:49:04;;;;;;;;;12.50;11.75;;;;;20.07;53.91;100566.47;5080605;28;46332;-54
2021/08/05 06:51:29;;;;;;;;;11.00;11.00;;;;;20.07;54.19;100563.81;5080685;27;45149;-51
2021/08/05 06:53:55;;;;;;;;;15.50;13.50;;;;;20.07;54.27;100556.66;5080951;28;45137;-53
2021/08/05 06:56:20;;;;;;;;;12.75;12.75;;;;;20.08;53.97;100561.03;5080870;28;45254;-53
2021/08/05 06:58:45;;;;;;;;;12.75;9.50;;;;;20.08;54.23;100558.38;5079185;28;45977;-53
2021/08/05 07:01:11;;;;;;;;;11.50;9.75;;;;;20.10;53.82;100555.63;5080675;27;45215;-50
2021/08/05 07:03:36;;;;;;;;;12.00;10.50;;;;;20.10;54.03;100552.94;5080854;28;46452;-52
2021/08/05 07:06:01;;;;;;;;;11.25;11.25;;;;;20.14;53.77;100550.03;5080506;28;45561;-50
2021/08/05 07:08:27;;;;;;;;;15.50;11.00;;;;;20.16;54.03;100557.09;5080538;28;45992;-53
2021/08/05 07:10:52;;;;;;;;;12.00;11.25;;;;;20.18;53.76;100556.06;5080518;27;45299;-51
2021/08/05 07:13:18;;;;;;;;;13.75;12.50;;;;;20.20;54.11;100554.16;5080608;28;45420;-49
2021/08/05 07:15:43;;;;;;;;;13.75;12.00;;;;;20.23;54.18;100550.47;5079384;28;45283;-51
2021/08/05 07:18:08;;;;;;;;;16.00;15.00;;;;;20.26;53.87;100547.59;5080225;28;47138;-52
2021/08/05 07:20:33;;;;;;;;;12.25;11.25;;;;;20.28;53.78;100551.03;5080060;28;45388;-51
2021/08/05 07:22:59;;;;;;;;;13.75;13.50;;;;;20.30;54.20;100557.13;5080482;28;45430;-50
2021/08/05 07:25:24;;;;;;;;;15.50;12.75;;;;;20.35;53.72;100562.22;5080558;28;45508;-53
2021/08/05 07:27:50;;;;;;;;;14.50;13.75;;;;;20.36;53.74;100551.44;5078700;28;46324;-52
2021/08/05 07:30:17;;;;;;;;;16.75;15.75;;;;;20.37;54.17;100555.00;5080108;28;45302;-50
2021/08/05 07:32:42;;;;;;;;;16.75;15.50;;;;;20.42;53.65;100564.44;5080144;28;45469;-51
2021/08/05 07:35:09;;;;;;;;;9.75;9.50;;;;;20.43;53.81;100563.50;5079932;27;45446;-51
2021/08/05 07:37:34;;;;;;;;;12.25;11.25;;;;;20.45;53.79;100560.72;5080169;28;46351;-51
2021/08/05 07:40:00;;;;;;;;;16.75;12.50;;;;;20.48;54.19;100565.03;5079416;28;45227;-50
2021/08/05 07:42:25;;;;;;;;;14.75;14.00;;;;;20.51;54.14;100570.19;5080119;28;45311;-50
2021/08/05 07:44:51;;;;;;;;;16.00;13.50;;;;;20.52;54.05;100570.09;5080219;28;45208;-50
2021/08/05 07:47:16;;;;;;;;;13.75;12.50;;;;;20.54;53.55;100567.34;5079934;28;47008;-52
2021/08/05 07:49:42;;;;;;;;;14.75;12.00;;;;;20.53;53.67;100561.16;5079787;28;45193;-52
2021/08/05 07:52:09;;;;;;;;;12.50;12.50;;;;;20.55;53.95;100558.38;5079834;27;45255;-51
2021/08/05 07:54:35;;;;;;;;;12.00;12.00;;;;;20.57;53.39;100554.66;5078744;28;45508;-52
2021/08/05 07:57:00;;;;;;;;;10.50;10.50;;;;;20.60;53.48;100561.63;5079523;28;46090;-53
2021/08/05 07:59:26;;;;;;;;;16.00;12.25;;;;;20.67;53.52;100568.34;5080116;28;45240;-51
2021/08/05 08:01:51;;;;;;;;;14.50;12.00;;;;;20.69;53.74;100555.78;5079856;28;45293;-52
2021/08/05 08:04:17;;;;;;;;;13.00;12.00;;;;;20.73;53.64;100561.81;5080065;28;45478;-52
2021/08/05 08:06:42;;;;;;;;;7.00;7.00;;;;;20.77;53.92;100558.84;5079541;28;45257;-53
2021/08/05 08:09:08;;;;;;;;;15.75;13.50;;;;;20.82;53.90;100557.72;5079727;28;45334;-52
2021/08/05 08:11:34;;;;;;;;;11.50;10.50;;;;;20.83;53.32;100554.09;5079911;28;45299;-50
2021/08/05 08:14:00;;;;;;;;;11.75;11.00;;;;;20.85;53.93;100552.19;5079687;28;45224;-52
2021/08/05 08:16:26;;;;;;;;;16.25;14.50;;;;;20.92;54.01;100545.53;5078304;28;48276;-52
2021/08/05 08:18:51;;;;;;;;;11.75;11.00;;;;;20.92;53.32;100549.06;5078526;28;45320;-52
2021/08/05 08:21:17;;;;;;;;;13.75;12.75;;;;;20.99;53.27;100552.22;5079268;27;45396;-50
2021/08/05 08:23:44;;;;;;;;;15.25;13.75;;;;;21.03;53.67;100551.09;5079912;28;45389;-50
2021/08/05 08:26:09;;;;;;;;;20.25;12.75;;;;;21.04;53.73;100541.25;5078237;28;48469;-51
2021/08/05 08:28:35;;;;;;;;;15.00;12.00;;;;;21.10;53.42;100540.88;5079421;28;45353;-49
2021/08/05 08:31:00;;;;;;;;;13.50;11.00;;;;;21.16;53.23;100547.66;5079564;28;45346;-54
2021/08/05 08:33:26;;;;;;;;;13.75;13.75;;;;;21.20;53.43;100538.50;5079510;28;45326;-54
2021/08/05 08:35:51;;;;;;;;;16.75;15.00;;;;;21.25;53.01;100534.56;5079259;27;45429;-52
2021/08/05 08:38:20;;;;;;;;;12.50;12.25;;;;;21.31;53.62;100538.69;5079519;28;45318;-52
2021/08/05 08:40:45;;;;;;;;;12.25;12.25;;;;;21.33;53.56;100523.41;5078213;28;45283;-51
2021/08/05 08:43:11;;;;;;;;;11.75;11.50;;;;;21.40;53.48;100524.75;5079220;28;45157;-53
2021/08/05 08:45:37;;;;;;;;;18.00;14.75;;;;;21.46;52.99;100527.97;5079241;28;45349;-52
2021/08/05 08:48:04;;;;;;;;;16.00;12.75;;;;;21.50;53.64;100530.38;5079403;28;45228;-53
2021/08/05 08:50:32;;;;;;;;;11.00;11.00;;;;;21.49;53.30;100530.47;5077569;28;45436;-52
2021/08/05 08:53:04;;;;;;;;;17.25;14.75;;;;;21.56;52.96;100531.84;5080713;28;45396;-51
2021/08/05 08:55:30;;;;;;;;;14.00;12.75;;;;;21.62;53.00;100534.09;5081375;28;46312;-51
2021/08/05 08:57:59;;;;;;;;;14.50;12.75;;;;;21.68;52.72;100536.38;5082518;28;45252;-51
2021/08/05 09:00:24;;;;;;;;;25.50;23.00;;;;;21.73;52.63;100536.94;5082565;28;45430;-50
2021/08/05 09:02:50;;;;;;;;;14.00;12.75;;;;;21.83;52.66;100536.34;5082706;28;45583;-54
2021/08/05 09:05:15;;;;;;;;;15.00;13.00;;;;;21.87;52.89;100532.53;5082062;28;46136;-51
2021/08/05 09:07:44;;;;;;;;;14.50;12.75;;;;;21.89;52.72;100541.31;5082664;28;45240;-52
2021/08/05 09:10:10;;;;;;;;;13.50;11.50;;;;;21.93;52.78;100537.47;5082399;27;45383;-50
2021/08/05 09:12:35;;;;;;;;;16.00;12.50;;;;;22.00;52.91;100536.13;5082167;28;45302;-50
2021/08/05 09:15:01;;;;;;;;;14.25;12.75;;;;;22.00;53.06;100530.78;5080799;28;47024;-54
2021/08/05 09:17:33;;;;;;;;;12.50;11.50;;;;;22.06;52.68;100532.16;5082412;28;45327;-51
2021/08/05 09:20:03;;;;;;;;;13.00;13.00;;;;;22.13;52.55;100538.84;5081813;27;45405;-51
2021/08/05 09:22:29;;;;;;;;;15.75;13.50;;;;;22.16;52.55;100540.44;5082151;28;45340;-51
2021/08/05 09:24:54;;;;;;;;;13.00;13.00;;;;;22.17;52.93;100531.47;5082197;28;45357;-51
2021/08/05 09:27:33;;;;;;;;;13.75;11.00;;;;;22.24;52.64;100543.50;5080608;28;45285;-52
2021/08/05 09:30:00;;;;;;;;;13.00;10.75;;;;;22.29;52.21;100545.84;5097988;27;45323;-51
2021/08/05 09:32:26;;;;;;;;;12.50;12.00;;;;;22.32;52.16;100540.31;5081971;28;45450;-52
2021/08/05 09:35:05;;;;;;;;;12.25;12.00;;;;;22.31;52.25;100538.56;5070756;28;45985;-54
2021/08/05 09:37:37;;;;;;;;;16.50;13.50;;;;;22.36;52.26;100544.47;5081775;28;45243;-53
2021/08/05 09:40:12;;;;;;;;;13.75;12.25;;;;;22.40;52.55;100543.34;5080667;28;45332;-53
2021/08/05 09:42:38;;;;;;;;;20.00;13.50;;;;;22.41;52.20;100547.72;5080327;28;45546;-53
2021/08/05 09:45:05;;;;;;;;;14.25;11.00;;;;;22.45;52.09;100545.72;5081755;28;46103;-52
2021/08/05 09:47:30;;;;;;;;;15.50;13.75;;;;;22.43;52.03;100537.78;5081666;28;45241;-50
2021/08/05 09:49:56;;;;;;;;;12.00;11.00;;;;;22.46;51.74;100542.06;5081505;27;45449;-51
2021/08/05 09:52:32;;;;;;;;;13.50;11.75;;;;;22.48;51.16;100530.31;5081824;28;45234;-52
2021/08/05 09:54:59;;;;;;;;;12.00;11.50;;;;;22.49;51.44;100531.16;5081565;28;45331;-52
2021/08/05 09:57:30;;;;;;;;;13.50;12.75;;;;;22.53;51.20;100530.00;5081547;28;45280;-52
2021/08/05 10:00:09;;;;;;;;;14.00;13.00;;;;;22.53;51.50;100519.28;5081448;27;46823;-52
2021/08/05 10:02:49;;;;;;;;;12.25;11.75;;;;;22.55;51.03;100506.63;5081880;28;45468;-50
2021/08/05 10:05:17;;;;;;;;;11.00;10.00;;;;;22.60;51.03;100519.72;5080814;28;47112;-52
2021/08/05 10:07:48;;;;;;;;;12.25;10.25;;;;;22.69;50.95;100513.72;5081589;28;45286;-53
2021/08/05 10:10:16;;;;;;;;;9.25;7.50;;;;;22.73;50.95;100513.41;5081144;27;45378;-53
2021/08/05 10:12:53;;;;;;;;;7.75;7.75;;;;;22.77;51.00;100505.19;5081378;28;45272;-52
2021/08/05 10:15:19;;;;;;;;;8.50;7.75;;;;;22.85;50.87;100519.72;5081282;28;46183;-52
2021/08/05 10:17:45;;;;;;;;;6.50;6.00;;;;;22.89;50.64;100502.50;5081225;28;45365;-53
2021/08/05 10:20:13;;;;;;;;;9.00;9.00;;;;;22.94;50.82;100504.84;5079814;27;45465;-52
2021/08/05 10:22:40;;;;;;;;;10.75;9.25;;;;;22.99;50.53;100504.53;5079964;28;46132;-52
2021/08/05 10:25:09;;;;;;;;;5.75;5.75;;;;;23.02;50.36;100502.50;5081341;28;45269;-53
2021/08/05 10:27:35;;;;;;;;;9.25;8.25;;;;;23.09;50.18;100497.53;5079654;28;45346;-52
2021/08/05 10:30:03;;;;;;;;;5.00;5.00;;;;;23.14;50.35;100500.75;5081308;27;45320;-52
2021/08/05 10:32:28;;;;;;;;;9.00;8.25;;;;;23.14;50.29;100499.91;5080893;28;45334;-50
2021/08/05 10:34:54;;;;;;;;;7.50;7.50;;;;;23.18;50.12;100491.59;5081094;27;45292;-52
2021/08/05 10:37:20;;;;;;;;;6.25;6.25;;;;;23.24;50.07;100490.28;5081049;28;45200;-51
2021/08/05 10:39:47;;;;;;;;;5.00;4.00;;;;;23.25;50.19;100483.09;5081377;27;45242;-50
2021/08/05 10:42:17;;;;;;;;;7.50;6.00;;;;;23.28;50.41;100478.38;5080849;28;45550;-52
2021/08/05 10:44:44;;;;;;;;;5.50;5.50;;;;;23.37;49.80;100469.66;5080807;28;46397;-51
2021/08/05 10:47:17;;;;;;;;;5.00;5.00;;;;;23.49;49.64;100470.59;5079517;28;45727;-50
2021/08/05 10:49:46;;;;;;;;;8.00;6.00;;;;;23.65;49.63;100470.31;5080978;28;45540;-53
2021/08/05 10:52:38;;;;;;;;;4.50;4.00;;;;;23.84;49.62;100459.09;5080700;28;45548;-52
2021/08/05 10:55:23;;;;;;;;;5.00;5.00;;;;;24.06;49.68;100462.84;5080616;27;46863;-53
2021/08/05 10:58:18;;;;;;;;;6.00;6.00;;;;;24.32;49.71;100460.03;5080184;28;45319;-52
2021/08/05 11:00:49;;;;;;;;;6.25;5.50;;;;;24.62;49.47;100461.34;5080881;27;45316;-51
2021/08/05 11:03:36;;;;;;;;;5.00;5.00;;;;;24.90;49.83;100459.19;5080491;28;45492;-52
2021/08/05 11:06:03;;;;;;;;;6.00;6.00;;;;;25.08;49.36;100459.53;5080379;28;46143;-52
2021/08/05 11:08:30;;;;;;;;;8.00;5.75;;;;;25.26;49.61;100449.16;5080398;28;45347;-50
2021/08/05 11:11:20;;;;;;;;;5.25;5.25;;;;;25.45;49.63;100440.47;5080629;27;45239;-53
2021/08/05 11:13:54;;;;;;;;;4.50;4.50;;;;;25.61;49.56;100442.78;5079088;28;45489;-53
2021/08/05 11:16:51;;;;;;;;;7.00;5.75;;;;;25.71;48.79;100440.16;5079389;28;46349;-51
2021/08/05 11:19:20;;;;;;;;;4.25;4.25;;;;;25.79;48.50;100437.69;5078993;28;45326;-53